Airfield :
LOGIN :

Register | Disclaimer

   EN    FR    IT 

 










Legend :    VFR   Marginal VFR   IFR   Intensive IFR   Very Intensive IFR
Visi :
Ceiling :
>= 8 km
>= 3000ft
5 to 8 km
1000 to 3000 ft
1500m to 5 km
500 to 1000 ft
800 to 1500m
200 to 500 ft
< 800m
< 200 ft
Symbols :   Thunderstorms  Fog  Heavy snow  Heavy precipitations  Wind > 20 kt
SIGMETs :     Misc.  Thunderstorms  Icing  Turbulence  Mountain Waves  Volcanic Ashes







- Airport Elevation : 49 ft
- IATA code : GLZ


EHGR - Gilze-Rijen Airbase

CURRENT METAR :
  • 171455Z AUTO 19004KT 160V250 9999 SCT057 SCT062 24/12 Q1018 BLU

EXPIRED METARs :
  • 171436Z AUTO 17007KT 110V250 9999 NCD 25/12 Q1018 BLU
  • 171425Z AUTO VRB04KT 9999 SCT053 26/13 Q1018 BLU 16005KT 9999 SCT040
  • 171355Z AUTO 18006KT 110V240 9999 SCT052 BKN058 24/12 Q1018 BLU 16005KT 9999 SCT040
  • 171325Z AUTO 16006KT 060V180 9999 FEW050 SCT057 BKN240 25/12 Q1018 BLU 16005KT 9999 SCT040
  • 171311Z AUTO 13006KT 120V210 9999 BKN051 BKN260 25/13 Q1018 BLU 16007KT 9999 SCT040
  • 171255Z AUTO 19005KT 120V260 9999 BKN050 BKN058 25/13 Q1018 BLU 20007KT 9999 SCT040
  • 171225Z AUTO 19006KT 140V280 9999 BKN290 25/13 Q1019 BLU 20007KT 9999 SCT040

TAF TAF EHGR
Valid from the 17 at 13:00 until the 18 at 01:00 UTC


171228Z 1713/1801 20004KT CAVOK
BECMG 1715/1717 23005KT
BECMG 1717/1719 VRB03KT
No reported NOTAMs for that airfield.



MET'MAP, your aeronautical weather chart ! - Copyright ORBIFLY December 2007 - Disclaimer

ORBIFLY MET'MAP TEAM :

Programming & Development : Alexandra Zaïnal
Concept & Development : Baudouin d'Aumeries
Co-Development & Prog : Marc-Olivier Méhu
Technical & hardware support : Manuel Goepfert

Contact : metmap@orbifly.com




SOURCES & CREDITS :

   NOAA